createdAt,value
2018-08-17T00:00:49.409Z,12.70
2018-08-17T00:03:19.023Z,12.80
2018-08-17T00:05:48.281Z,12.80
2018-08-17T00:08:17.456Z,12.70
2018-08-17T00:10:46.893Z,12.50
2018-08-17T00:13:16.115Z,12.50
2018-08-17T00:15:45.255Z,12.60
2018-08-17T00:18:14.592Z,12.60
2018-08-17T00:20:44.179Z,12.50
2018-08-17T00:23:13.206Z,12.50
2018-08-17T00:25:43.245Z,12.50
2018-08-17T00:28:12.573Z,12.40
2018-08-17T00:30:41.741Z,12.40
2018-08-17T00:33:10.994Z,12.60
2018-08-17T00:35:40.111Z,12.40
2018-08-17T00:38:09.617Z,12.40
2018-08-17T00:40:38.899Z,12.40
2018-08-17T00:43:08.156Z,12.40
2018-08-17T00:45:37.538Z,12.30
2018-08-17T00:48:06.982Z,12.40
2018-08-17T00:50:36.444Z,12.30
2018-08-17T00:53:05.659Z,12.40
2018-08-17T00:55:34.926Z,12.20
2018-08-17T00:58:04.124Z,12.10
2018-08-17T01:00:33.460Z,12.20
2018-08-17T01:03:02.676Z,12.30
2018-08-17T01:05:32.233Z,12.40
2018-08-17T01:08:01.531Z,12.40
2018-08-17T01:10:30.551Z,12.30
2018-08-17T01:12:59.812Z,12.20
2018-08-17T01:15:29.435Z,12.00
2018-08-17T01:17:58.792Z,12.10
2018-08-17T01:20:27.914Z,12.10
2018-08-17T01:22:57.161Z,12.00
2018-08-17T01:25:26.347Z,11.80
2018-08-17T01:27:55.552Z,11.90
2018-08-17T01:30:24.807Z,11.90
2018-08-17T01:32:54.235Z,12.00
2018-08-17T01:35:23.444Z,12.00
2018-08-17T01:37:52.577Z,12.10
2018-08-17T01:40:21.875Z,12.00
2018-08-17T01:42:50.975Z,11.90
2018-08-17T01:45:20.431Z,12.00
2018-08-17T01:47:49.972Z,12.00
2018-08-17T01:50:19.326Z,12.00
2018-08-17T01:52:48.581Z,11.90
2018-08-17T01:55:18.127Z,11.80
2018-08-17T01:57:47.199Z,11.90
2018-08-17T02:00:16.435Z,11.90
2018-08-17T02:02:45.784Z,11.90
2018-08-17T02:05:14.910Z,11.90
2018-08-17T02:07:43.987Z,11.70
2018-08-17T02:10:13.464Z,11.70
2018-08-17T02:12:42.616Z,11.80
2018-08-17T02:15:11.869Z,11.90
2018-08-17T02:17:41.564Z,11.70
2018-08-17T02:20:10.753Z,11.80
2018-08-17T02:22:39.920Z,11.90
2018-08-17T02:25:09.421Z,11.90
2018-08-17T02:27:38.567Z,11.90
2018-08-17T02:30:07.963Z,11.80
2018-08-17T02:32:37.624Z,11.80
2018-08-17T02:35:06.718Z,11.80
2018-08-17T02:37:35.768Z,11.70
2018-08-17T02:40:05.407Z,11.60
2018-08-17T02:42:34.754Z,11.60
2018-08-17T02:45:03.972Z,11.60
2018-08-17T02:47:33.363Z,11.60
2018-08-17T02:50:02.849Z,11.50
2018-08-17T02:52:31.989Z,11.60
2018-08-17T02:55:01.261Z,11.70
2018-08-17T02:57:30.402Z,11.70
2018-08-17T02:59:59.615Z,11.70
2018-08-17T03:02:28.943Z,11.70
2018-08-17T03:04:58.272Z,11.80
2018-08-17T03:07:27.668Z,11.90
2018-08-17T03:09:57.021Z,11.90
2018-08-17T03:12:26.159Z,11.90
2018-08-17T03:14:55.431Z,11.90
2018-08-17T03:17:24.599Z,11.90
2018-08-17T03:19:53.880Z,11.80
2018-08-17T03:22:23.007Z,11.80
2018-08-17T03:24:52.512Z,11.70
2018-08-17T03:27:21.711Z,11.70
2018-08-17T03:29:50.959Z,11.80
2018-08-17T03:32:20.115Z,11.80
2018-08-17T03:34:49.463Z,11.80
2018-08-17T03:37:18.813Z,11.70
2018-08-17T03:39:49.443Z,11.70
2018-08-17T03:42:18.468Z,11.60
2018-08-17T03:44:47.640Z,11.40
2018-08-17T03:47:16.796Z,11.30
2018-08-17T03:49:46.024Z,11.40
2018-08-17T03:52:15.316Z,11.50
2018-08-17T03:54:44.688Z,11.70
2018-08-17T03:57:13.704Z,11.70
2018-08-17T03:59:43.060Z,11.80
2018-08-17T04:02:12.615Z,11.70
2018-08-17T04:04:41.723Z,11.60
2018-08-17T04:07:10.920Z,11.60
2018-08-17T04:09:39.964Z,11.70
2018-08-17T04:12:09.092Z,11.70
2018-08-17T04:14:38.336Z,11.50
2018-08-17T04:17:07.584Z,11.50
2018-08-17T04:19:37.979Z,11.60
2018-08-17T04:22:07.718Z,11.60
2018-08-17T04:24:37.008Z,11.50
2018-08-17T04:27:06.315Z,11.60
2018-08-17T04:29:35.543Z,11.60
2018-08-17T04:32:04.927Z,11.60
2018-08-17T04:34:34.070Z,11.70
2018-08-17T04:37:03.403Z,11.60
2018-08-17T04:39:32.671Z,11.70
2018-08-17T04:42:01.962Z,11.70
2018-08-17T04:44:31.252Z,11.70
2018-08-17T04:47:00.711Z,11.70
2018-08-17T04:49:29.857Z,11.80
2018-08-17T04:51:59.139Z,11.80
2018-08-17T04:54:28.295Z,11.80
2018-08-17T04:56:57.578Z,12.00
2018-08-17T04:59:26.953Z,12.10
2018-08-17T05:01:55.952Z,12.20
2018-08-17T05:04:25.196Z,12.20
2018-08-17T05:06:54.647Z,12.30
2018-08-17T05:09:23.789Z,12.40
2018-08-17T05:11:52.960Z,12.50
2018-08-17T05:14:22.299Z,12.70
2018-08-17T05:16:51.416Z,12.90
2018-08-17T05:19:20.590Z,13.00
2018-08-17T05:21:49.952Z,13.20
2018-08-17T05:24:19.285Z,13.20
2018-08-17T05:26:48.336Z,13.30
2018-08-17T05:29:17.612Z,13.50
2018-08-17T05:31:46.577Z,13.60
2018-08-17T05:34:15.765Z,13.80
2018-08-17T05:36:44.945Z,13.90
2018-08-17T05:39:14.192Z,13.90
2018-08-17T05:41:43.406Z,14.00
2018-08-17T05:44:12.653Z,14.20
2018-08-17T05:46:42.092Z,14.30
2018-08-17T05:49:11.207Z,14.40
2018-08-17T05:51:40.622Z,14.40
2018-08-17T05:54:09.665Z,14.50
2018-08-17T05:56:39.062Z,14.60
2018-08-17T05:59:09.008Z,14.70
2018-08-17T06:01:38.468Z,14.90
2018-08-17T06:04:08.107Z,15.00
2018-08-17T06:06:37.509Z,15.10
2018-08-17T06:09:08.179Z,15.20
2018-08-17T06:11:38.036Z,15.50
2018-08-17T06:14:07.285Z,15.50
2018-08-17T06:16:36.512Z,15.70
2018-08-17T06:19:05.638Z,15.80
2018-08-17T06:21:34.586Z,16.00
2018-08-17T06:24:03.664Z,16.20
2018-08-17T06:26:33.154Z,16.30
2018-08-17T06:29:02.100Z,16.50
2018-08-17T06:31:31.336Z,16.60
2018-08-17T06:34:00.757Z,16.90
2018-08-17T06:36:29.929Z,17.10
2018-08-17T06:38:59.176Z,17.20
2018-08-17T06:41:28.419Z,17.30
2018-08-17T06:43:57.933Z,17.50
2018-08-17T06:46:27.193Z,17.70
2018-08-17T06:48:56.301Z,17.90
2018-08-17T06:51:25.315Z,18.00
2018-08-17T06:53:54.432Z,18.20
2018-08-17T06:56:23.687Z,18.30
2018-08-17T06:58:52.820Z,18.40
2018-08-17T07:01:22.353Z,18.60
2018-08-17T07:03:51.735Z,18.80
2018-08-17T07:06:21.121Z,19.00
2018-08-17T07:08:50.286Z,19.30
2018-08-17T07:11:19.363Z,19.50
2018-08-17T07:13:48.497Z,19.70
2018-08-17T07:16:17.662Z,19.90
2018-08-17T07:18:46.863Z,19.90
2018-08-17T07:21:16.044Z,20.10
2018-08-17T07:23:45.335Z,20.30
2018-08-17T07:26:14.721Z,20.60
2018-08-17T07:28:44.001Z,20.70
2018-08-17T07:31:13.272Z,20.70
2018-08-17T07:33:42.572Z,20.90
2018-08-17T07:36:11.696Z,21.20
2018-08-17T07:38:41.431Z,21.10
2018-08-17T07:41:10.801Z,21.30
2018-08-17T07:43:39.931Z,21.30
2018-08-17T07:46:09.344Z,21.40
2018-08-17T07:48:38.487Z,21.60
2018-08-17T07:51:07.623Z,21.90
2018-08-17T07:53:36.793Z,22.10
2018-08-17T07:56:06.248Z,22.30
2018-08-17T07:58:35.733Z,22.40
2018-08-17T08:01:04.973Z,22.60
2018-08-17T08:03:34.387Z,22.60
2018-08-17T08:06:03.507Z,22.50
2018-08-17T08:08:32.737Z,22.70
2018-08-17T08:11:01.980Z,22.90
2018-08-17T08:13:31.389Z,23.00
2018-08-17T08:16:01.113Z,22.80
2018-08-17T08:18:30.373Z,23.00
2018-08-17T08:20:59.512Z,23.10
2018-08-17T08:23:29.990Z,23.30
2018-08-17T08:25:59.453Z,23.40
2018-08-17T08:28:28.637Z,23.50
2018-08-17T08:31:03.155Z,23.90
2018-08-17T08:33:35.222Z,23.80
2018-08-17T08:36:04.346Z,24.10
2018-08-17T08:38:33.592Z,24.00
2018-08-17T08:41:03.357Z,24.30
2018-08-17T08:43:33.091Z,24.50
2018-08-17T08:46:06.912Z,24.70
2018-08-17T08:48:36.631Z,24.60
2018-08-17T08:51:06.053Z,24.80
2018-08-17T08:53:35.275Z,25.00
2018-08-17T08:56:04.952Z,25.10
2018-08-17T08:58:34.238Z,25.00
2018-08-17T09:01:03.666Z,25.00
2018-08-17T09:03:33.427Z,25.40
2018-08-17T09:06:02.637Z,25.70
2018-08-17T09:08:31.927Z,25.50
2018-08-17T09:11:01.071Z,25.60
2018-08-17T09:13:30.310Z,25.60
2018-08-17T09:16:00.061Z,25.80
2018-08-17T09:18:29.304Z,25.60
2018-08-17T09:20:58.860Z,25.60
2018-08-17T09:23:28.026Z,25.80
2018-08-17T09:25:57.235Z,25.70
2018-08-17T09:28:26.647Z,26.40
2018-08-17T09:30:57.776Z,26.50
2018-08-17T09:33:27.407Z,26.30
2018-08-17T09:35:57.082Z,26.40
2018-08-17T09:38:26.363Z,26.90
2018-08-17T09:40:55.702Z,26.30
2018-08-17T09:43:25.346Z,26.70
2018-08-17T09:45:54.692Z,27.00
2018-08-17T09:48:23.824Z,27.10
2018-08-17T09:50:54.278Z,26.90
2018-08-17T09:53:23.809Z,27.00
2018-08-17T09:55:52.912Z,26.90
2018-08-17T09:58:22.454Z,26.80
2018-08-17T10:00:56.895Z,26.70
2018-08-17T10:03:31.341Z,27.30
2018-08-17T10:06:05.690Z,26.90
2018-08-17T10:10:42.813Z,26.80
2018-08-17T10:13:12.187Z,27.20
2018-08-17T10:15:43.546Z,27.40
2018-08-17T10:18:12.745Z,27.80
2018-08-17T10:20:42.427Z,27.70
2018-08-17T10:23:17.103Z,27.00
2018-08-17T10:25:46.055Z,27.50
2018-08-17T10:28:15.466Z,27.30
2018-08-17T10:30:44.452Z,26.80
2018-08-17T10:33:15.330Z,27.00
2018-08-17T10:35:44.445Z,26.70
2018-08-17T10:38:13.775Z,26.60
2018-08-17T10:40:43.129Z,26.60
2018-08-17T10:43:12.527Z,27.50
2018-08-17T10:45:41.968Z,28.10
2018-08-17T10:48:11.120Z,28.10
2018-08-17T10:50:40.432Z,27.10
2018-08-17T10:53:11.314Z,27.20
2018-08-17T10:55:45.969Z,27.20
2018-08-17T10:58:16.285Z,27.10
2018-08-17T11:00:45.553Z,27.80
2018-08-17T11:03:14.865Z,27.80
2018-08-17T11:05:44.115Z,28.00
2018-08-17T11:08:13.312Z,27.30
2018-08-17T11:10:43.373Z,27.60
2018-08-17T11:13:12.483Z,26.60
2018-08-17T11:15:41.827Z,25.80
2018-08-17T11:18:11.285Z,26.20
2018-08-17T11:20:41.252Z,27.10
2018-08-17T11:23:10.448Z,27.60
2018-08-17T11:25:39.836Z,26.70
2018-08-17T11:28:11.099Z,27.10
2018-08-17T11:30:40.484Z,27.80
2018-08-17T11:33:10.055Z,27.20
2018-08-17T11:35:39.161Z,27.40
2018-08-17T11:38:08.507Z,27.30
2018-08-17T11:40:37.870Z,27.60
2018-08-17T11:43:06.935Z,28.10
2018-08-17T11:45:36.618Z,26.90
2018-08-17T11:48:06.048Z,26.60
2018-08-17T11:50:37.394Z,26.90
2018-08-17T11:53:07.632Z,26.50
2018-08-17T11:55:37.988Z,26.10
2018-08-17T11:58:07.388Z,25.60
2018-08-17T12:00:37.478Z,25.90
2018-08-17T12:03:08.431Z,26.30
2018-08-17T12:05:37.911Z,26.60
2018-08-17T12:08:07.375Z,27.10
2018-08-17T12:10:37.019Z,27.50
2018-08-17T12:13:13.997Z,27.30
2018-08-17T12:15:48.985Z,27.30
2018-08-17T12:18:23.053Z,27.60
2018-08-17T12:20:52.610Z,27.50
2018-08-17T12:23:21.986Z,27.60
2018-08-17T12:25:58.550Z,27.70
2018-08-17T12:28:29.395Z,28.10
2018-08-17T12:30:59.065Z,27.90
2018-08-17T12:33:28.216Z,27.40
2018-08-17T12:35:57.932Z,27.70
2018-08-17T12:38:27.674Z,27.90
2018-08-17T12:40:58.116Z,27.70
2018-08-17T12:43:29.233Z,27.60
2018-08-17T12:45:59.889Z,28.30
2018-08-17T12:48:30.050Z,27.20
2018-08-17T12:51:06.302Z,26.40
2018-08-17T12:53:37.902Z,26.10
2018-08-17T12:56:08.246Z,26.40
2018-08-17T12:58:37.561Z,27.50
2018-08-17T13:01:06.802Z,27.40
2018-08-17T13:03:35.896Z,27.50
2018-08-17T13:06:05.753Z,28.30
2018-08-17T13:08:35.378Z,27.90
2018-08-17T13:11:04.581Z,27.40
2018-08-17T13:13:34.076Z,27.90
2018-08-17T13:16:07.043Z,28.00
2018-08-17T13:18:37.644Z,28.40
2018-08-17T13:21:07.034Z,28.10
2018-08-17T13:23:36.512Z,28.00
2018-08-17T13:26:06.076Z,27.10
2018-08-17T13:28:35.681Z,26.60
2018-08-17T13:31:04.912Z,26.00
2018-08-17T13:33:34.974Z,25.90
2018-08-17T13:36:04.347Z,26.10
2018-08-17T13:38:33.590Z,26.60
2018-08-17T13:41:03.518Z,26.80
2018-08-17T13:43:32.950Z,27.30
2018-08-17T13:46:02.200Z,27.30
2018-08-17T13:48:31.501Z,26.60
2018-08-17T13:51:00.812Z,26.40
2018-08-17T13:53:30.570Z,26.10
2018-08-17T13:56:00.302Z,25.50
2018-08-17T13:58:29.860Z,25.70
2018-08-17T14:00:59.023Z,26.40
2018-08-17T14:03:28.484Z,25.90
2018-08-17T14:05:57.671Z,25.80
2018-08-17T14:08:26.876Z,26.00
2018-08-17T14:10:55.975Z,26.40
2018-08-17T14:13:25.369Z,26.70
2018-08-17T14:15:54.639Z,26.70
2018-08-17T14:18:24.156Z,27.00
2018-08-17T14:20:53.236Z,27.10
2018-08-17T14:23:22.594Z,27.40
2018-08-17T14:25:51.968Z,27.30
2018-08-17T14:28:21.233Z,27.50
2018-08-17T14:30:50.403Z,27.70
2018-08-17T14:33:19.892Z,27.20
2018-08-17T14:35:49.305Z,27.00
2018-08-17T14:38:29.512Z,27.00
2018-08-17T14:40:58.716Z,27.00
2018-08-17T14:43:27.971Z,27.00
2018-08-17T14:45:57.232Z,27.30
2018-08-17T14:48:26.764Z,27.10
2018-08-17T14:50:55.979Z,26.90
2018-08-17T14:53:25.783Z,26.80
2018-08-17T14:55:54.872Z,26.60
2018-08-17T14:58:24.097Z,27.00
2018-08-17T15:00:53.644Z,27.20
2018-08-17T15:03:22.887Z,27.10
2018-08-17T15:05:52.103Z,27.20
2018-08-17T15:08:21.405Z,27.10
2018-08-17T15:10:50.682Z,26.80
2018-08-17T15:13:19.769Z,26.80
2018-08-17T15:15:48.977Z,26.90
2018-08-17T15:18:18.332Z,26.90
2018-08-17T15:20:47.680Z,27.00
2018-08-17T15:23:17.254Z,26.70
2018-08-17T15:25:46.494Z,26.40
2018-08-17T15:28:15.972Z,26.50
2018-08-17T15:30:45.435Z,26.50
2018-08-17T15:33:14.716Z,26.70
2018-08-17T15:35:44.069Z,26.80
2018-08-17T15:38:13.446Z,26.60
2018-08-17T15:40:43.277Z,26.40
2018-08-17T15:43:18.798Z,26.00
2018-08-17T15:45:48.985Z,25.90
2018-08-17T15:48:18.851Z,26.00
2018-08-17T15:50:48.598Z,25.90
2018-08-17T15:53:18.131Z,25.90
2018-08-17T15:55:50.216Z,25.80
2018-08-17T15:58:20.670Z,26.20
2018-08-17T16:00:50.650Z,25.90
2018-08-17T16:03:21.233Z,25.00
2018-08-17T16:05:51.029Z,24.50
2018-08-17T16:08:25.354Z,24.50
2018-08-17T16:10:57.564Z,24.40
2018-08-17T16:13:28.374Z,24.30
2018-08-17T16:15:57.907Z,24.30
2018-08-17T16:18:26.974Z,24.10
2018-08-17T16:20:56.238Z,24.10
2018-08-17T16:23:25.395Z,24.00
2018-08-17T16:25:54.748Z,23.70
2018-08-17T16:28:24.255Z,23.60
2018-08-17T16:30:53.599Z,23.20
2018-08-17T16:33:23.409Z,22.70
2018-08-17T16:35:52.816Z,22.70
2018-08-17T16:38:22.298Z,22.50
2018-08-17T16:40:53.353Z,22.20
2018-08-17T16:43:28.623Z,22.00
2018-08-17T16:45:57.849Z,21.80
2018-08-17T16:48:27.260Z,21.70
2018-08-17T16:50:56.417Z,21.80
2018-08-17T16:53:25.821Z,21.80
2018-08-17T16:55:55.044Z,21.40
2018-08-17T16:58:25.153Z,21.50
2018-08-17T17:00:54.272Z,21.50
2018-08-17T17:03:23.586Z,21.40
2018-08-17T17:06:02.126Z,21.30
2018-08-17T17:08:31.858Z,21.20
2018-08-17T17:11:02.218Z,21.20
2018-08-17T17:13:46.750Z,21.20
2018-08-17T17:16:17.304Z,20.90
2018-08-17T17:18:46.839Z,20.90
2018-08-17T17:21:16.029Z,20.60
2018-08-17T17:23:50.776Z,20.70
2018-08-17T17:26:19.806Z,20.70
2018-08-17T17:28:50.689Z,20.60
2018-08-17T17:31:19.641Z,20.60
2018-08-17T17:33:49.189Z,20.50
2018-08-17T17:36:18.439Z,20.50
2018-08-17T17:38:47.843Z,20.30
2018-08-17T17:41:17.015Z,20.10
2018-08-17T17:43:46.493Z,20.10
2018-08-17T17:46:15.873Z,20.00
2018-08-17T17:48:45.003Z,20.00
2018-08-17T17:51:14.275Z,19.80
2018-08-17T17:53:43.396Z,19.70
2018-08-17T17:56:12.651Z,19.60
2018-08-17T17:58:42.062Z,19.40
2018-08-17T18:01:11.392Z,19.30
2018-08-17T18:03:45.096Z,19.40
2018-08-17T18:06:14.083Z,19.40
2018-08-17T18:08:43.257Z,19.20
2018-08-17T18:11:12.487Z,19.10
2018-08-17T18:13:41.640Z,19.00
2018-08-17T18:16:10.783Z,18.90
2018-08-17T18:18:40.244Z,19.00
2018-08-17T18:21:09.840Z,18.80
2018-08-17T18:23:39.029Z,18.70
2018-08-17T18:26:16.169Z,18.60
2018-08-17T18:28:45.605Z,18.50
2018-08-17T18:31:14.933Z,18.50
2018-08-17T18:33:44.225Z,18.40
2018-08-17T18:36:13.592Z,18.30
2018-08-17T18:38:43.032Z,18.20
2018-08-17T18:41:12.401Z,18.00
2018-08-17T18:43:41.727Z,17.90
2018-08-17T18:46:11.123Z,17.90
2018-08-17T18:48:40.465Z,17.90
2018-08-17T18:51:09.825Z,17.90
2018-08-17T18:53:39.210Z,17.90
2018-08-17T18:56:08.400Z,17.90
2018-08-17T18:58:37.838Z,17.90
2018-08-17T19:01:06.974Z,17.70
2018-08-17T19:03:36.508Z,17.60
2018-08-17T19:06:05.580Z,17.70
2018-08-17T19:08:35.171Z,17.60
2018-08-17T19:11:04.453Z,17.40
2018-08-17T19:13:33.620Z,17.40
2018-08-17T19:16:02.862Z,17.30
2018-08-17T19:18:32.933Z,17.30
2018-08-17T19:21:05.738Z,17.40
2018-08-17T19:23:35.045Z,17.40
2018-08-17T19:26:04.368Z,17.30
2018-08-17T19:28:33.682Z,17.10
2018-08-17T19:31:03.133Z,17.10
2018-08-17T19:33:32.551Z,17.10
2018-08-17T19:36:03.872Z,17.10
2018-08-17T19:38:43.572Z,17.00
2018-08-17T19:41:13.072Z,17.00
2018-08-17T19:43:45.020Z,17.00
2018-08-17T19:46:14.419Z,16.90
2018-08-17T19:48:43.942Z,16.80
2018-08-17T19:51:17.269Z,16.80
2018-08-17T19:53:47.080Z,16.70
2018-08-17T19:56:16.857Z,16.60
2018-08-17T19:58:46.457Z,16.50
2018-08-17T20:01:15.764Z,16.20
2018-08-17T20:03:45.458Z,16.20
2018-08-17T20:06:14.933Z,16.30
2018-08-17T20:08:44.393Z,16.00
2018-08-17T20:11:13.635Z,16.00
2018-08-17T20:13:46.497Z,16.20
2018-08-17T20:16:26.238Z,16.30
2018-08-17T20:19:08.272Z,16.30
2018-08-17T20:21:45.399Z,16.30
2018-08-17T20:24:14.910Z,16.30
2018-08-17T20:26:44.411Z,16.30
2018-08-17T20:29:13.261Z,16.20
2018-08-17T20:31:43.950Z,16.10
2018-08-17T20:34:13.188Z,16.10
2018-08-17T20:36:42.633Z,16.10
2018-08-17T20:39:13.266Z,16.10
2018-08-17T20:41:42.505Z,16.00
2018-08-17T20:44:11.757Z,16.00
2018-08-17T20:46:40.936Z,15.90
2018-08-17T20:49:10.267Z,15.90
2018-08-17T20:51:45.542Z,15.70
2018-08-17T20:54:14.835Z,15.60
2018-08-17T20:56:44.314Z,15.60
2018-08-17T20:59:14.284Z,15.70
2018-08-17T21:01:45.023Z,15.60
2018-08-17T21:04:14.387Z,15.70
2018-08-17T21:06:43.499Z,15.60
2018-08-17T21:09:12.665Z,15.30
2018-08-17T21:11:42.082Z,15.30
2018-08-17T21:14:11.664Z,15.30
2018-08-17T21:16:40.969Z,15.40
2018-08-17T21:19:10.969Z,15.40
2018-08-17T21:21:40.731Z,15.30
2018-08-17T21:24:10.493Z,15.10
2018-08-17T21:26:39.811Z,15.20
2018-08-17T21:29:09.183Z,15.20
2018-08-17T21:31:38.515Z,15.20
2018-08-17T21:34:07.833Z,15.10
2018-08-17T21:36:37.244Z,15.00
2018-08-17T21:39:15.215Z,15.00
2018-08-17T21:41:45.468Z,15.00
2018-08-17T21:44:17.211Z,14.90
2018-08-17T21:47:05.402Z,14.90
2018-08-17T21:49:35.772Z,15.10
2018-08-17T21:52:07.499Z,15.10
2018-08-17T21:54:36.757Z,14.90
2018-08-17T21:57:05.870Z,14.80
2018-08-17T21:59:40.485Z,14.70
2018-08-17T22:02:10.988Z,14.80
2018-08-17T22:04:39.969Z,14.80
2018-08-17T22:07:13.580Z,14.80
2018-08-17T22:09:43.688Z,14.80
2018-08-17T22:12:13.412Z,14.70
2018-08-17T22:14:45.076Z,14.60
2018-08-17T22:17:25.378Z,14.60
2018-08-17T22:19:55.654Z,14.70
2018-08-17T22:22:24.812Z,14.70
2018-08-17T22:24:55.853Z,14.60
2018-08-17T22:30:03.406Z,14.60
2018-08-17T22:32:32.381Z,14.60
2018-08-17T22:35:02.551Z,14.60
2018-08-17T22:37:31.892Z,14.50
2018-08-17T22:40:01.527Z,14.40
2018-08-17T22:42:31.849Z,14.20
2018-08-17T22:45:01.952Z,14.30
2018-08-17T22:47:30.984Z,14.30
2018-08-17T22:50:01.267Z,14.20
2018-08-17T22:52:34.156Z,14.10
2018-08-17T22:55:05.217Z,14.10
2018-08-17T22:57:34.541Z,14.10
2018-08-17T23:00:29.867Z,14.10
2018-08-17T23:03:00.305Z,14.20
2018-08-17T23:05:30.968Z,14.20
2018-08-17T23:07:59.952Z,14.20
2018-08-17T23:10:29.588Z,14.20
2018-08-17T23:12:59.270Z,14.00
2018-08-17T23:15:28.311Z,14.10
2018-08-17T23:18:01.888Z,14.10
2018-08-17T23:20:34.544Z,14.20
2018-08-17T23:23:04.831Z,14.00
2018-08-17T23:25:34.076Z,14.00
2018-08-17T23:28:03.455Z,14.10
2018-08-17T23:30:32.732Z,14.10
2018-08-17T23:33:02.003Z,14.00
2018-08-17T23:35:31.195Z,13.90
2018-08-17T23:38:00.433Z,13.80
2018-08-17T23:40:29.850Z,13.80
2018-08-17T23:42:58.941Z,13.70
2018-08-17T23:45:28.493Z,13.80
2018-08-17T23:47:57.940Z,13.80
2018-08-17T23:50:27.199Z,13.90
2018-08-17T23:52:56.391Z,13.90
2018-08-17T23:55:25.613Z,13.90
2018-08-17T23:57:54.749Z,13.90
